»·PEaware :: AAL791 KSAN-KLAS

AAL791 :: KSAN-KLAS

FLIGHT INFORMATION

Flight Status: Arrived
Operator:
American Airlines
More flights by this operator :: More flights under this callsign
Pilot: Chase Wakefield (8260)
Aircraft: EMBRAER EMB-170/175
(E170)
More flights by this aircraft type
Origin: KSAN San Diego Intl-Lindbergh
United States
Destination: KLAS McCarran Intl
United States
More flights between these airports :: More routes between these airports
Route: PADRZ1 CHKNN SEBBY YELAH MISEN KEPEC4
File this flight plan on PilotEdge
Remarks:
Altitude:
(Current/Filed)
25,000ft
Speed:
(Current/Filed)
350kts
Departed: 04-Jun-17 05:58 PM
Arrived: 04-Jun-17 06:58 PM
Distance/Time
Traveled:
225nm/1:00
Distance/Time
To Go:
Arrived

Flight Plot

Page will automatically refresh every two minutes.

Flight plan parsing failed; only flown route is shown


Map Options




Map Legend


Flown Route
Filed Route
Departure Airport
Arrival Airport
Navaid (VOR, NDB)
Fix

Horizontal Profiles

Position Reports

Time Latitude Longitude Heading Altitude Ground
Speed
04-Jun-17 17:42 32.732991 -117.198981 93 25ft 0kts
04-Jun-17 17:43 32.732991 -117.198981 93 25ft 0kts
04-Jun-17 17:44 32.732991 -117.198981 93 25ft 0kts
04-Jun-17 17:45 32.732991 -117.198981 93 25ft 0kts
04-Jun-17 17:46 32.732991 -117.198981 93 25ft 0kts
04-Jun-17 17:47 32.732991 -117.198981 93 25ft 0kts
04-Jun-17 17:48 32.732991 -117.198981 93 25ft 0kts
04-Jun-17 17:49 32.732991 -117.198981 93 25ft 0kts
04-Jun-17 17:50 32.732991 -117.198981 93 25ft 0kts
04-Jun-17 17:51 32.732991 -117.198981 93 25ft 0kts
04-Jun-17 17:52 32.732991 -117.198981 93 25ft 0kts
04-Jun-17 17:53 32.733156 -117.199498 319 24ft 11kts
04-Jun-17 17:54 32.733681 -117.199780 357 25ft 0kts
04-Jun-17 17:55 32.733824 -117.199763 17 24ft 4kts
04-Jun-17 17:56 32.734741 -117.199207 74 25ft 14kts
04-Jun-17 17:57 32.732820 -117.190819 107 24ft 34kts
04-Jun-17 17:58 32.730396 -117.180884 105 25ft 37kts
04-Jun-17 17:59 32.729507 -117.176735 72 24ft 0kts
04-Jun-17 18:00 32.733168 -117.188294 285 168ft 189kts
04-Jun-17 18:01 32.751895 -117.234397 294 1253ft 163kts
04-Jun-17 18:02 32.772726 -117.277138 306 2371ft 166kts
04-Jun-17 18:03 32.797164 -117.314559 305 3399ft 168kts
04-Jun-17 18:04 32.830661 -117.366513 305 4781ft 243kts
04-Jun-17 18:05 32.870167 -117.427753 304 6338ft 251kts
04-Jun-17 18:06 32.910716 -117.490779 304 7883ft 262kts
04-Jun-17 18:07 32.952528 -117.555916 303 9414ft 274kts
04-Jun-17 18:08 32.991357 -117.616479 303 10788ft 282kts
04-Jun-17 18:09 33.035080 -117.684777 302 12305ft 288kts
04-Jun-17 18:10 33.085191 -117.750410 313 13953ft 326kts
04-Jun-17 18:11 33.131270 -117.798047 315 15150ft 361kts
04-Jun-17 18:12 33.201356 -117.869050 316 16821ft 369kts
04-Jun-17 18:13 33.272163 -117.938248 316 18448ft 377kts
04-Jun-17 18:14 33.349994 -118.014326 315 20199ft 385kts
04-Jun-17 18:15 33.423800 -118.086634 315 21828ft 392kts
04-Jun-17 18:16 33.502680 -118.164094 315 23537ft 400kts
04-Jun-17 18:17 33.588442 -118.241095 327 24940ft 422kts
04-Jun-17 18:18 33.689488 -118.296899 341 24910ft 442kts
04-Jun-17 18:19 33.785556 -118.267823 30 24919ft 466kts
04-Jun-17 18:20 33.850697 -118.180765 53 24946ft 470kts
04-Jun-17 18:21 33.907675 -118.085537 54 24940ft 470kts
04-Jun-17 18:22 33.970372 -117.979560 54 24942ft 471kts
04-Jun-17 18:23 34.035148 -117.869713 54 24955ft 472kts
04-Jun-17 18:24 34.100056 -117.762338 50 24963ft 472kts
04-Jun-17 18:25 34.164124 -117.668307 49 24940ft 472kts
04-Jun-17 18:26 34.220116 -117.586342 49 24928ft 472kts
04-Jun-17 18:27 34.269745 -117.513547 49 24932ft 473kts
04-Jun-17 18:28 34.339943 -117.410290 49 24944ft 474kts
04-Jun-17 18:29 34.411660 -117.304529 50 24841ft 474kts
04-Jun-17 18:30 34.486818 -117.193315 50 24373ft 470kts
04-Jun-17 18:31 34.563505 -117.079489 50 23956ft 466kts
04-Jun-17 18:32 34.643228 -116.960733 49 23909ft 462kts
04-Jun-17 18:33 34.722734 -116.841958 49 23873ft 458kts
04-Jun-17 18:34 34.802596 -116.722233 49 23874ft 458kts
04-Jun-17 18:35 34.888683 -116.612086 37 23876ft 456kts
04-Jun-17 18:36 34.987272 -116.515800 36 23881ft 461kts
04-Jun-17 18:37 35.086453 -116.419336 37 23894ft 464kts
04-Jun-17 18:38 35.163967 -116.326664 45 23338ft 442kts
04-Jun-17 18:39 35.245207 -116.224906 45 21596ft 405kts
04-Jun-17 18:40 35.320368 -116.130371 45 19868ft 378kts
04-Jun-17 18:41 35.391247 -116.040974 45 18151ft 365kts
04-Jun-17 18:42 35.460323 -115.953621 46 15858ft 360kts
04-Jun-17 18:43 35.528576 -115.867086 46 13502ft 340kts
04-Jun-17 18:44 35.593390 -115.784669 46 13061ft 339kts
04-Jun-17 18:45 35.658434 -115.701777 46 13058ft 339kts
04-Jun-17 18:46 35.723250 -115.618981 46 13057ft 340kts
04-Jun-17 18:47 35.811878 -115.574405 2 13045ft 332kts
04-Jun-17 18:48 35.902499 -115.567533 359 13044ft 335kts
04-Jun-17 18:49 35.977471 -115.521648 58 12711ft 310kts
04-Jun-17 18:50 36.013361 -115.429596 70 11576ft 304kts
04-Jun-17 18:51 36.026919 -115.338933 96 10606ft 291kts
04-Jun-17 18:52 36.021693 -115.247230 99 9708ft 263kts
04-Jun-17 18:53 36.015684 -115.160444 98 8663ft 263kts
04-Jun-17 18:54 36.009975 -115.075029 97 8031ft 251kts
04-Jun-17 18:55 36.009819 -115.001357 58 7872ft 219kts
04-Jun-17 18:56 36.060618 -114.979179 334 6538ft 177kts
04-Jun-17 18:57 36.072482 -115.026259 267 4929ft 155kts
04-Jun-17 18:58 36.073555 -115.077953 263 3135ft 154kts
04-Jun-17 18:59 36.073699 -115.122049 267 2229ft 119kts
04-Jun-17 19:00 36.073756 -115.143157 280 2149ft 31kts
04-Jun-17 19:01 36.074585 -115.145626 292 2149ft 0kts
04-Jun-17 19:02 36.074586 -115.145626 292 2149ft 0kts
04-Jun-17 19:03 36.074586 -115.145626 292 2149ft 0kts
04-Jun-17 19:04 36.074586 -115.145626 292 2149ft 0kts
04-Jun-17 19:05 36.077899 -115.146980 324 2149ft 17kts
04-Jun-17 19:06 36.080720 -115.149189 327 2149ft 20kts
04-Jun-17 19:07 36.082271 -115.150566 332 2149ft 0kts

Navigation Log

Ident Type
Flight plan parsing failed, navigation log unavailable